Watson, Canada
Current Conditions -  °F | °C
As of 12:00 PM on Friday 24 Oct 2014 (Local Time) from CYBU Reporting Station
Broken Clouds Broken Clouds  
Wind Chill: 37°   Ceiling: 3100
Heat Index: 45°   Visibility: 9mi
Dew Point: 36°   Wind: 16mph
Humidity: 71%   Direction: 250°WSW
Pressure: 29.61"   Gusts: 30mph
Location:  52.13°N, 104.53°W
Report Text: CYBU 241800Z AUTO 25014G26KT 9SM BKN031 07/02 A2961 RMK SLP040
Loading
Personal Weather Stations






























Interactive Weather Map
Tropical Storm Tracking
New forecast layout! Learn more

10-Day Weather Forecast

Advertisements
Track Severe Weather on mobile